createdAt,value
2022-11-26T00:03:52.578Z,4.28
2022-11-26T00:09:20.987Z,4.13
2022-11-26T00:14:42.985Z,3.33
2022-11-26T00:20:05.305Z,3.58
2022-11-26T00:25:33.256Z,6.20
2022-11-26T00:30:57.963Z,4.95
2022-11-26T00:36:27.527Z,5.70
2022-11-26T00:41:51.197Z,5.72
2022-11-26T00:47:12.943Z,5.65
2022-11-26T00:52:35.021Z,5.05
2022-11-26T00:57:57.743Z,4.82
2022-11-26T01:03:19.780Z,2.90
2022-11-26T01:08:41.630Z,2.70
2022-11-26T01:14:03.356Z,3.28
2022-11-26T01:19:25.106Z,2.20
2022-11-26T01:24:47.415Z,2.35
2022-11-26T01:30:18.982Z,3.03
2022-11-26T01:35:40.669Z,2.10
2022-11-26T01:41:15.805Z,2.13
2022-11-26T01:46:39.044Z,2.97
2022-11-26T01:52:21.380Z,2.05
2022-11-26T01:57:44.381Z,2.20
2022-11-26T02:03:07.162Z,2.80
2022-11-26T02:08:31.653Z,3.47
2022-11-26T02:13:56.914Z,3.17
2022-11-26T02:19:49.482Z,1.15
2022-11-26T02:25:29.961Z,1.58
2022-11-26T02:31:18.237Z,1.27
2022-11-26T02:36:50.177Z,1.63
2022-11-26T02:42:30.423Z,1.98
2022-11-26T02:47:55.910Z,2.45
2022-11-26T02:53:20.927Z,1.88
2022-11-26T02:58:43.480Z,1.03
2022-11-26T03:04:15.661Z,0.82
2022-11-26T03:09:53.971Z,2.08
2022-11-26T03:15:15.680Z,1.88
2022-11-26T03:20:37.318Z,2.00
2022-11-26T03:25:59.151Z,1.38
2022-11-26T03:31:20.908Z,1.65
2022-11-26T03:36:43.346Z,1.85
2022-11-26T03:42:05.410Z,1.15
2022-11-26T03:47:27.582Z,0.88
2022-11-26T03:52:49.260Z,1.38
2022-11-26T03:58:10.987Z,1.10
2022-11-26T04:03:32.758Z,0.70
2022-11-26T04:08:54.654Z,1.25
2022-11-26T04:14:16.443Z,2.03
2022-11-26T04:19:38.177Z,0.82
2022-11-26T04:24:59.856Z,0.98
2022-11-26T04:30:21.558Z,1.27
2022-11-26T04:35:43.789Z,0.75
2022-11-26T04:41:05.656Z,1.48
2022-11-26T04:46:27.296Z,0.90
2022-11-26T04:51:48.948Z,0.52
2022-11-26T04:57:10.632Z,0.90
2022-11-26T05:02:32.315Z,0.80
2022-11-26T05:07:54.142Z,0.70
2022-11-26T05:13:15.933Z,1.02
2022-11-26T05:18:37.634Z,1.42
2022-11-26T05:23:59.301Z,0.93
2022-11-26T05:29:20.947Z,0.38
2022-11-26T05:34:42.784Z,1.60
2022-11-26T05:40:05.328Z,1.98
2022-11-26T05:45:27.102Z,0.63
2022-11-26T05:50:53.120Z,0.73
2022-11-26T05:56:16.302Z,1.67
2022-11-26T06:01:38.127Z,1.63
2022-11-26T06:06:59.791Z,1.17
2022-11-26T06:12:21.533Z,0.75
2022-11-26T06:17:43.320Z,1.20
2022-11-26T06:23:05.400Z,0.60
2022-11-26T06:28:27.162Z,1.05
2022-11-26T06:33:52.791Z,0.95
2022-11-26T06:44:36.927Z,0.38
2022-11-26T06:49:58.812Z,0.75
2022-11-26T06:55:21.335Z,0.68
2022-11-26T07:00:43.034Z,0.45
2022-11-26T07:06:04.942Z,0.75
2022-11-26T07:11:27.079Z,0.90
2022-11-26T07:16:49.030Z,1.15
2022-11-26T07:22:10.667Z,1.38
2022-11-26T07:27:32.354Z,2.35
2022-11-26T07:32:54.020Z,0.80
2022-11-26T07:38:15.688Z,0.70
2022-11-26T07:43:39.320Z,8.07
2022-11-26T07:49:01.014Z,1.92
2022-11-26T07:54:22.698Z,1.73
2022-11-26T07:59:44.356Z,6.38
2022-11-26T08:05:06.646Z,15.32
2022-11-26T08:10:28.325Z,8.25
2022-11-26T08:15:50.001Z,7.70
2022-11-26T08:21:11.766Z,5.50
2022-11-26T08:26:38.425Z,4.72
2022-11-26T08:32:04.555Z,9.75
2022-11-26T08:37:26.378Z,4.75
2022-11-26T08:42:48.132Z,4.10
2022-11-26T08:48:09.832Z,4.10
2022-11-26T08:53:33.522Z,3.65
2022-11-26T08:58:55.269Z,2.50
2022-11-26T09:04:17.070Z,2.80
2022-11-26T09:09:38.992Z,3.80
2022-11-26T09:15:00.692Z,4.93
2022-11-26T09:20:22.450Z,7.68
2022-11-26T09:25:44.119Z,4.55
2022-11-26T09:31:06.293Z,6.72
2022-11-26T09:36:28.138Z,6.10
2022-11-26T09:42:03.292Z,4.57
2022-11-26T09:47:38.400Z,5.60
2022-11-26T09:53:09.196Z,3.23
2022-11-26T09:58:38.960Z,6.80
2022-11-26T10:04:01.001Z,8.98
2022-11-26T10:09:34.748Z,10.02
2022-11-26T10:15:35.403Z,16.17
2022-11-26T10:21:18.233Z,10.55
2022-11-26T10:26:49.940Z,14.80
2022-11-26T10:32:16.250Z,12.15
2022-11-26T10:37:37.928Z,10.38
2022-11-26T10:43:08.660Z,13.13
2022-11-26T10:48:32.944Z,10.43
2022-11-26T10:54:02.353Z,15.48
2022-11-26T10:59:28.887Z,8.95
2022-11-26T11:04:53.834Z,12.73
2022-11-26T11:10:19.259Z,13.67
2022-11-26T11:15:41.812Z,13.27
2022-11-26T11:21:05.199Z,9.50
2022-11-26T11:26:28.496Z,9.82
2022-11-26T11:31:50.435Z,12.10
2022-11-26T11:37:17.223Z,10.05
2022-11-26T11:42:40.776Z,12.50
2022-11-26T11:48:14.671Z,10.90
2022-11-26T11:54:03.379Z,6.50
2022-11-26T11:59:47.969Z,9.45
2022-11-26T12:05:28.230Z,8.98
2022-11-26T12:11:17.631Z,8.68
2022-11-26T12:16:43.803Z,7.25
2022-11-26T12:22:18.790Z,10.98
2022-11-26T12:27:46.939Z,7.70
2022-11-26T12:33:41.498Z,8.93
2022-11-26T12:39:18.409Z,12.00
2022-11-26T12:44:44.036Z,6.38
2022-11-26T12:56:28.349Z,5.07
2022-11-26T13:01:50.892Z,9.38
2022-11-26T13:07:18.391Z,11.13
2022-11-26T13:13:06.598Z,10.20
2022-11-26T13:18:34.740Z,13.60
2022-11-26T13:24:40.937Z,9.85
2022-11-26T13:30:24.195Z,12.38
2022-11-26T13:36:04.010Z,9.25
2022-11-26T13:41:58.653Z,11.48
2022-11-26T13:47:23.614Z,10.85
2022-11-26T13:53:00.052Z,11.90
2022-11-26T13:58:31.102Z,8.90
2022-11-26T14:03:53.035Z,17.42
2022-11-26T14:09:55.024Z,13.00
2022-11-26T14:15:51.679Z,10.88
2022-11-26T14:21:13.865Z,12.60
2022-11-26T14:26:40.001Z,12.45
2022-11-26T14:32:01.828Z,10.35
2022-11-26T14:37:27.147Z,10.07
2022-11-26T14:42:48.763Z,11.35
2022-11-26T14:48:47.247Z,10.18
2022-11-26T14:54:17.423Z,6.50
2022-11-26T15:00:05.953Z,7.60
2022-11-26T15:05:33.291Z,10.93
2022-11-26T15:11:00.937Z,13.07
2022-11-26T15:16:43.117Z,9.02
2022-11-26T15:22:34.335Z,17.17
2022-11-26T15:27:59.244Z,5.45
2022-11-26T15:33:21.575Z,8.50
2022-11-26T15:39:06.557Z,10.40
2022-11-26T15:44:30.061Z,8.93
2022-11-26T15:49:56.188Z,12.57
2022-11-26T15:55:26.510Z,13.13
2022-11-26T16:00:54.182Z,7.28
2022-11-26T16:06:27.090Z,7.40
2022-11-26T16:11:59.973Z,7.20
2022-11-26T16:17:21.847Z,7.10
2022-11-26T16:22:46.619Z,9.23
2022-11-26T16:28:11.050Z,9.00
2022-11-26T16:33:32.787Z,14.27
2022-11-26T16:38:54.568Z,5.95
2022-11-26T16:44:16.318Z,8.13
2022-11-26T16:49:38.013Z,11.30
2022-11-26T16:54:59.755Z,9.65
2022-11-26T17:00:25.001Z,15.90
2022-11-26T17:05:46.698Z,13.93
2022-11-26T17:11:12.186Z,11.23
2022-11-26T17:21:55.666Z,11.82
2022-11-26T17:27:20.189Z,13.98
2022-11-26T17:32:42.025Z,21.08
2022-11-26T17:38:10.645Z,23.80
2022-11-26T17:43:32.505Z,17.10
2022-11-26T17:48:59.999Z,19.55
2022-11-26T17:54:21.928Z,16.02
2022-11-26T17:59:44.321Z,13.75
2022-11-26T18:05:06.299Z,19.00
2022-11-26T18:10:28.040Z,29.13
2022-11-26T18:15:49.760Z,22.83
2022-11-26T18:21:12.391Z,17.25
2022-11-26T18:26:37.718Z,18.98
2022-11-26T18:31:59.419Z,19.65
2022-11-26T18:37:21.112Z,19.90
2022-11-26T18:42:43.146Z,18.08
2022-11-26T18:48:05.023Z,23.80
2022-11-26T18:53:27.578Z,18.35
2022-11-26T18:58:50.472Z,18.55
2022-11-26T19:04:12.948Z,25.55
2022-11-26T19:09:34.725Z,23.73
2022-11-26T19:14:56.417Z,23.92
2022-11-26T19:20:18.158Z,23.25
2022-11-26T19:25:39.803Z,20.17
2022-11-26T19:31:06.692Z,16.55
2022-11-26T19:36:30.027Z,15.98
2022-11-26T19:41:51.893Z,16.05
2022-11-26T19:47:13.570Z,33.33
2022-11-26T19:52:35.241Z,20.85
2022-11-26T19:57:56.949Z,27.65
2022-11-26T20:03:18.802Z,24.88
2022-11-26T20:08:40.699Z,19.52
2022-11-26T20:14:03.567Z,16.00
2022-11-26T20:19:25.241Z,11.15
2022-11-26T20:24:46.881Z,13.20
2022-11-26T20:30:09.399Z,12.85
2022-11-26T20:35:31.094Z,10.25
2022-11-26T20:40:52.741Z,12.95
2022-11-26T20:46:14.953Z,10.45
2022-11-26T20:51:39.610Z,14.30
2022-11-26T20:57:01.522Z,38.43
2022-11-26T21:02:23.257Z,21.58
2022-11-26T21:07:45.015Z,25.58
2022-11-26T21:13:07.783Z,21.15
2022-11-26T21:18:29.730Z,33.67
2022-11-26T21:23:51.597Z,23.08
2022-11-26T21:29:13.397Z,10.65
2022-11-26T21:34:35.088Z,11.43
2022-11-26T21:39:56.891Z,25.77
2022-11-26T21:45:18.876Z,23.50
2022-11-26T21:50:40.652Z,16.80
2022-11-26T21:56:20.595Z,16.23
2022-11-26T22:01:43.086Z,8.57
2022-11-26T22:07:04.940Z,12.13
2022-11-26T22:12:26.938Z,10.30
2022-11-26T22:17:48.556Z,8.50
2022-11-26T22:23:10.265Z,8.25
2022-11-26T22:28:32.004Z,4.50
2022-11-26T22:33:56.027Z,6.78
2022-11-26T22:39:18.814Z,5.70
2022-11-26T22:44:40.497Z,6.70
2022-11-26T22:50:02.141Z,6.28
2022-11-26T22:55:23.881Z,4.03
2022-11-26T23:00:51.053Z,7.68
2022-11-26T23:06:15.383Z,4.95
2022-11-26T23:11:39.776Z,7.20
2022-11-26T23:17:01.418Z,7.30
2022-11-26T23:22:23.083Z,3.65
2022-11-26T23:27:44.945Z,3.05
2022-11-26T23:33:06.722Z,3.75
2022-11-26T23:38:28.794Z,3.97
2022-11-26T23:43:50.490Z,3.13
2022-11-26T23:49:12.881Z,2.95
2022-11-26T23:54:34.913Z,2.47
2022-11-26T23:59:56.716Z,3.88
